Time;durP1;ratioP1;P1;durP2;ratioP2;P2;SDS_P1;SDS_P2;PMS_P1;PMS_P2;Temp;Humidity;BMP_temperature;BMP_pressure;BME280_temperature;BME280_humidity;BME280_pressure;Samples;Min_cycle;Max_cycle;Signal;HPM_P1;HPM_P2
2022/01/30 00:01:37;;;;;;;1.23;1.13;;;;;;;7.38;78.90;96262.25;5016259;28;20662;-85
2022/01/30 00:04:03;;;;;;;0.90;0.90;;;;;;;7.43;78.41;96272.06;5028809;28;20223;-85
2022/01/30 00:06:30;;;;;;;1.00;0.90;;;;;;;7.40;78.45;96269.78;5030559;28;20226;-85
2022/01/30 00:08:56;;;;;;;0.90;0.90;;;;;;;7.38;79.08;96257.13;5028203;28;20210;-85
2022/01/30 00:11:28;;;;;;;0.80;0.80;;;;;;;7.34;79.11;96266.03;5024460;28;20650;-85
2022/01/30 00:13:56;;;;;;;1.00;0.90;;;;;;;7.39;78.90;96261.28;5017048;28;20227;-86
2022/01/30 00:16:25;;;;;;;1.00;0.90;;;;;;;7.33;79.61;96251.59;5015821;28;20195;-84
2022/01/30 00:18:59;;;;;;;0.80;0.80;;;;;;;7.21;80.69;96250.16;5016580;28;20225;-84
2022/01/30 00:21:34;;;;;;;0.90;0.90;;;;;;;7.29;80.40;96263.09;5016442;28;20225;-84
2022/01/30 00:24:05;;;;;;;2.10;1.00;;;;;;;7.30;80.78;96266.47;5027706;28;20222;-85
2022/01/30 00:26:34;;;;;;;0.80;0.80;;;;;;;7.32;80.75;96260.22;5029212;28;20282;-84
2022/01/30 00:29:03;;;;;;;0.77;0.77;;;;;;;7.35;80.60;96257.38;5029860;28;20199;-85
2022/01/30 00:31:31;;;;;;;1.53;0.90;;;;;;;7.35;80.26;96254.84;5030926;28;20281;-85
2022/01/30 00:33:59;;;;;;;0.90;0.90;;;;;;;7.28;80.99;96277.66;5025220;28;20238;-85
2022/01/30 00:36:26;;;;;;;1.03;0.97;;;;;;;7.31;80.89;96273.19;5015632;28;20230;-85
2022/01/30 00:38:52;;;;;;;0.80;0.80;;;;;;;7.30;80.70;96271.59;5016699;28;20281;-83
2022/01/30 00:41:19;;;;;;;0.90;0.90;;;;;;;7.33;80.45;96278.97;5016155;28;20202;-84
2022/01/30 00:43:45;;;;;;;0.90;0.90;;;;;;;7.23;81.16;96276.44;5015103;28;20265;-84
2022/01/30 00:46:13;;;;;;;0.80;0.80;;;;;;;7.22;80.84;96282.50;5015649;28;20222;-85
2022/01/30 00:48:39;;;;;;;0.97;0.97;;;;;;;7.32;80.58;96264.53;5038943;23;20582;-85
2022/01/30 00:51:06;;;;;;;0.80;0.80;;;;;;;7.32;80.25;96267.91;5012740;28;20199;-85
2022/01/30 00:53:33;;;;;;;0.80;0.80;;;;;;;7.22;80.91;96262.03;5014434;28;20252;-84
2022/01/30 00:55:59;;;;;;;0.90;0.90;;;;;;;7.27;80.57;96250.44;5014593;28;20218;-85
2022/01/30 00:58:25;;;;;;;0.73;0.73;;;;;;;7.29;80.71;96255.41;5014393;28;20191;-83
2022/01/30 01:00:52;;;;;;;0.90;0.80;;;;;;;7.33;80.08;96261.03;5014127;28;20202;-84
2022/01/30 01:03:20;;;;;;;0.87;0.87;;;;;;;7.24;80.50;96249.88;5015341;28;20199;-84
2022/01/30 01:05:47;;;;;;;0.70;0.70;;;;;;;7.34;80.17;96252.41;5014479;28;20756;-84
2022/01/30 01:08:18;;;;;;;1.00;0.90;;;;;;;7.36;79.61;96250.50;5013442;28;20250;-83
2022/01/30 01:10:49;;;;;;;0.80;0.80;;;;;;;7.29;79.84;96247.72;5014541;28;20234;-84
2022/01/30 01:24:21;;;;;;;1.27;1.00;;;;;;;7.26;79.84;96256.50;5014641;28;20271;-85
2022/01/30 01:26:48;;;;;;;0.80;0.80;;;;;;;7.25;79.79;96242.06;5014165;28;20238;-84
2022/01/30 01:29:15;;;;;;;0.80;0.80;;;;;;;7.22;80.11;96236.41;5013225;28;20218;-84
2022/01/30 01:31:41;;;;;;;0.90;0.90;;;;;;;7.24;79.80;96250.69;5013671;28;20226;-84
2022/01/30 01:34:24;;;;;;;0.70;0.70;;;;;;;7.25;79.85;96236.13;5014138;28;20198;-84
2022/01/30 01:36:51;;;;;;;1.63;0.90;;;;;;;7.18;79.99;96230.75;5013591;28;20222;-84
2022/01/30 01:39:17;;;;;;;0.70;0.70;;;;;;;7.16;80.24;96255.69;5013638;28;20211;-84
2022/01/30 01:41:44;;;;;;;0.80;0.80;;;;;;;7.19;80.18;96262.28;5014059;28;20616;-85
2022/01/30 01:44:17;;;;;;;0.70;0.70;;;;;;;7.15;80.18;96251.50;5013884;28;20191;-84
2022/01/30 01:46:45;;;;;;;0.90;0.90;;;;;;;7.19;79.58;96240.06;5013036;28;20286;-83
2022/01/30 01:49:19;;;;;;;0.73;0.73;;;;;;;7.05;80.67;96235.38;5012177;28;20253;-84
2022/01/30 01:51:50;;;;;;;0.80;0.80;;;;;;;7.07;80.09;96232.69;5014187;28;20642;-84
2022/01/30 01:54:17;;;;;;;0.80;0.80;;;;;;;7.12;79.92;96264.59;5014322;28;20191;-84
2022/01/30 01:56:43;;;;;;;0.80;0.80;;;;;;;7.13;80.29;96243.16;5013296;28;20233;-84
2022/01/30 01:59:10;;;;;;;0.70;0.70;;;;;;;7.17;79.53;96230.91;5012946;28;20215;-84
2022/01/30 02:01:36;;;;;;;0.70;0.70;;;;;;;7.24;79.45;96219.97;5014546;28;20202;-84
2022/01/30 02:04:02;;;;;;;0.70;0.70;;;;;;;7.17;79.80;96207.84;5013900;28;20214;-84
2022/01/30 02:06:30;;;;;;;0.60;0.60;;;;;;;7.14;79.84;96210.69;5013837;28;20218;-84
2022/01/30 02:09:00;;;;;;;1.07;0.90;;;;;;;7.19;79.12;96218.75;5012653;28;20322;-85
2022/01/30 02:11:35;;;;;;;0.70;0.70;;;;;;;7.24;78.87;96212.28;5014969;28;20286;-84
2022/01/30 02:14:29;;;;;;;0.80;0.80;;;;;;;7.26;78.50;96230.88;5014212;28;20202;-84
2022/01/30 02:25:27;;;;;;;0.80;0.80;;;;;;;7.14;78.75;96228.59;5014589;28;20328;-84
2022/01/30 02:27:57;;;;;;;0.87;0.87;;;;;;;7.25;78.41;96224.13;5014370;28;20269;-84
2022/01/30 02:30:29;;;;;;;0.97;0.90;;;;;;;7.23;78.31;96202.97;5009927;28;20310;-84
2022/01/30 02:32:56;;;;;;;0.73;0.73;;;;;;;7.19;78.01;96203.41;5014785;28;20198;-84
2022/01/30 02:35:23;;;;;;;0.70;0.70;;;;;;;7.21;78.10;96199.75;5008154;28;20201;-84
2022/01/30 02:37:53;;;;;;;1.23;0.80;;;;;;;7.19;78.36;96213.63;5013799;28;20213;-84
2022/01/30 02:40:19;;;;;;;0.90;0.90;;;;;;;7.13;78.36;96209.88;5018412;28;20231;-83
2022/01/30 02:42:49;;;;;;;0.80;0.80;;;;;;;7.11;78.56;96193.06;5023790;28;20439;-83
2022/01/30 02:45:18;;;;;;;0.70;0.70;;;;;;;7.19;78.00;96188.03;5017300;28;20207;-84
2022/01/30 02:47:56;;;;;;;0.80;0.80;;;;;;;7.17;78.15;96197.59;5018198;28;20295;-84
2022/01/30 02:50:34;;;;;;;1.13;0.80;;;;;;;7.14;78.39;96211.50;5011435;28;20242;-84
2022/01/30 02:53:04;;;;;;;0.70;0.70;;;;;;;7.18;78.51;96196.66;5016891;28;20309;-83
2022/01/30 02:55:31;;;;;;;0.70;0.70;;;;;;;7.19;78.24;96193.97;5017989;28;20218;-84
2022/01/30 02:57:57;;;;;;;0.70;0.70;;;;;;;7.23;78.01;96192.75;5016652;28;20570;-84
2022/01/30 03:00:24;;;;;;;0.63;0.63;;;;;;;7.17;78.27;96188.16;5011890;28;20215;-84
2022/01/30 03:02:50;;;;;;;0.80;0.80;;;;;;;7.10;78.37;96199.13;5017620;28;20223;-84
2022/01/30 03:05:17;;;;;;;0.80;0.70;;;;;;;7.07;78.21;96181.47;5017145;28;20679;-84
2022/01/30 03:07:43;;;;;;;0.70;0.70;;;;;;;7.12;78.13;96182.66;5017508;28;20206;-84
2022/01/30 03:10:11;;;;;;;0.70;0.70;;;;;;;7.14;78.40;96182.50;5015756;28;20752;-84
2022/01/30 03:12:38;;;;;;;0.70;0.70;;;;;;;7.12;78.27;96192.13;5015690;28;20272;-83
2022/01/30 03:15:05;;;;;;;0.70;0.70;;;;;;;7.10;77.92;96176.88;5017833;28;20203;-84
2022/01/30 03:17:32;;;;;;;1.57;1.10;;;;;;;7.06;78.25;96179.88;5017094;28;20574;-84
2022/01/30 03:19:58;;;;;;;0.70;0.70;;;;;;;7.01;78.16;96176.91;5017095;28;20254;-84
2022/01/30 03:22:26;;;;;;;0.97;0.87;;;;;;;7.05;77.77;96191.84;5010972;28;20289;-84
2022/01/30 03:24:53;;;;;;;0.83;0.80;;;;;;;7.03;77.74;96191.19;5017151;28;20226;-83
2022/01/30 03:27:21;;;;;;;0.80;0.80;;;;;;;7.14;77.58;96197.88;5017558;28;20226;-84
2022/01/30 03:29:51;;;;;;;0.70;0.70;;;;;;;7.17;77.12;96197.59;5017148;28;20769;-84
2022/01/30 03:32:18;;;;;;;0.80;0.80;;;;;;;7.16;77.45;96194.22;5017517;28;20194;-84
2022/01/30 03:34:45;;;;;;;0.70;0.70;;;;;;;7.12;77.49;96203.13;5017809;28;20207;-84
2022/01/30 03:37:11;;;;;;;0.80;0.80;;;;;;;7.13;78.17;96203.94;5016987;28;20238;-84
2022/01/30 03:39:38;;;;;;;0.67;0.67;;;;;;;7.13;78.02;96206.50;5016743;28;20218;-84
2022/01/30 03:42:05;;;;;;;0.70;0.70;;;;;;;7.15;78.03;96212.28;5017173;28;20202;-83
2022/01/30 03:44:33;;;;;;;1.00;0.80;;;;;;;7.06;78.40;96202.91;5017350;28;20194;-84
2022/01/30 03:46:59;;;;;;;0.80;0.80;;;;;;;7.10;77.73;96209.38;5016743;28;20647;-83
2022/01/30 03:49:26;;;;;;;1.23;0.80;;;;;;;7.13;77.35;96217.56;5016741;28;20726;-83
2022/01/30 03:51:53;;;;;;;0.80;0.80;;;;;;;7.12;77.12;96222.84;5016172;28;20206;-84
2022/01/30 03:54:19;;;;;;;0.80;0.80;;;;;;;7.23;76.55;96222.66;5017094;28;20191;-84
2022/01/30 03:56:45;;;;;;;0.70;0.70;;;;;;;7.29;76.29;96217.00;5016751;28;20226;-84
2022/01/30 03:59:12;;;;;;;0.83;0.83;;;;;;;7.31;76.02;96215.09;5015945;28;20237;-84
2022/01/30 04:01:40;;;;;;;1.07;0.90;;;;;;;7.19;76.65;96224.69;5017321;28;20203;-84
2022/01/30 04:04:06;;;;;;;0.80;0.80;;;;;;;7.17;76.71;96223.22;5017029;28;20206;-84
2022/01/30 04:06:33;;;;;;;1.07;1.00;;;;;;;7.26;76.18;96233.44;5016366;28;20481;-84
2022/01/30 04:09:00;;;;;;;0.80;0.80;;;;;;;7.27;75.96;96239.38;5016045;28;20210;-84
2022/01/30 04:11:29;;;;;;;0.70;0.70;;;;;;;7.27;75.99;96229.94;5016704;28;20199;-84
2022/01/30 04:13:56;;;;;;;0.70;0.70;;;;;;;7.18;77.02;96224.81;5017018;28;20222;-84
2022/01/30 04:16:23;;;;;;;0.80;0.80;;;;;;;7.16;77.33;96237.78;5016228;28;20707;-83
2022/01/30 04:18:51;;;;;;;0.80;0.80;;;;;;;7.20;77.01;96238.31;5015827;28;20817;-83
2022/01/30 04:21:18;;;;;;;0.73;0.73;;;;;;;7.27;76.65;96232.50;5016925;28;20747;-84
2022/01/30 04:23:44;;;;;;;0.90;0.90;;;;;;;7.27;76.90;96234.25;5017351;28;20203;-84
2022/01/30 04:26:11;;;;;;;2.10;0.97;;;;;;;7.27;77.46;96224.00;5016574;28;20233;-84
2022/01/30 04:28:38;;;;;;;0.70;0.70;;;;;;;7.22;77.66;96224.41;5016767;28;20227;-84
2022/01/30 04:31:04;;;;;;;0.83;0.83;;;;;;;7.20;77.46;96228.88;5016315;28;20709;-84
2022/01/30 04:33:31;;;;;;;0.80;0.80;;;;;;;7.19;77.41;96227.25;5016871;28;20210;-84
2022/01/30 04:36:04;;;;;;;2.20;0.90;;;;;;;7.20;77.21;96236.56;5016361;28;20199;-85
2022/01/30 04:38:39;;;;;;;0.70;0.70;;;;;;;7.18;77.33;96233.31;5011267;28;20226;-84
2022/01/30 04:52:32;;;;;;;0.83;0.83;;;;;;;7.00;79.50;96242.66;5016812;28;20213;-84
2022/01/30 04:57:51;;;;;;;0.90;0.90;;;;;;;7.09;79.28;96254.66;5010844;28;20195;-84
2022/01/30 05:03:26;;;;;;;1.20;1.10;;;;;;;7.05;80.81;96268.66;5000341;28;20204;-84
2022/01/30 05:06:00;;;;;;;1.30;1.20;;;;;;;7.06;80.30;96275.41;5015284;28;20203;-84
2022/01/30 05:08:28;;;;;;;1.40;1.30;;;;;;;7.07;81.54;96294.13;5018556;28;20250;-84
2022/01/30 05:10:55;;;;;;;1.40;1.30;;;;;;;7.06;81.92;96277.16;5017961;28;20217;-84
2022/01/30 05:13:25;;;;;;;2.33;1.53;;;;;;;6.91;81.94;96292.16;5015625;28;20570;-84
2022/01/30 05:15:51;;;;;;;1.50;1.40;;;;;;;6.94;82.19;96269.63;5015228;28;20194;-83
2022/01/30 05:18:19;;;;;;;1.90;1.60;;;;;;;7.04;81.09;96279.03;5015315;28;20199;-84
2022/01/30 05:20:46;;;;;;;1.87;1.27;;;;;;;7.03;80.70;96269.75;5015549;28;20206;-84
2022/01/30 05:23:13;;;;;;;1.40;1.30;;;;;;;7.04;80.45;96281.59;5013563;28;21040;-83
2022/01/30 05:25:41;;;;;;;1.40;1.30;;;;;;;6.99;80.10;96287.13;5014958;28;20199;-84
2022/01/30 05:28:09;;;;;;;2.10;1.40;;;;;;;7.03;80.19;96283.34;5014355;28;20242;-84
2022/01/30 05:30:37;;;;;;;1.50;1.40;;;;;;;7.09;79.95;96293.06;5014870;28;20226;-84
2022/01/30 05:33:03;;;;;;;1.47;1.30;;;;;;;7.10;79.99;96286.19;5014228;28;20245;-84
2022/01/30 05:35:30;;;;;;;1.50;1.40;;;;;;;7.10;79.67;96281.06;5015091;28;20202;-84
2022/01/30 05:37:57;;;;;;;1.70;1.60;;;;;;;7.04;80.57;96276.47;5015138;28;20198;-84
2022/01/30 05:40:25;;;;;;;1.60;1.50;;;;;;;7.03;82.03;96288.47;5007619;28;20219;-84
2022/01/30 05:42:53;;;;;;;1.60;1.50;;;;;;;7.00;83.34;96295.63;5014194;28;20227;-83
2022/01/30 05:45:30;;;;;;;1.70;1.60;;;;;;;6.91;85.45;96300.63;5014124;28;20191;-83
2022/01/30 05:47:58;;;;;;;2.00;1.90;;;;;;;6.90;86.40;96296.44;5013614;28;20228;-84
2022/01/30 05:50:25;;;;;;;1.80;1.70;;;;;;;6.90;88.07;96300.75;5012917;28;20573;-83
2022/01/30 05:52:51;;;;;;;1.93;1.83;;;;;;;6.81;88.83;96306.69;5013046;28;20230;-84
2022/01/30 05:55:18;;;;;;;1.90;1.80;;;;;;;6.74;89.89;96308.97;5014496;28;20290;-84
2022/01/30 05:57:44;;;;;;;2.17;2.03;;;;;;;6.74;89.17;96306.41;5014050;28;20199;-84
2022/01/30 06:00:14;;;;;;;3.77;2.10;;;;;;;6.68;88.59;96308.72;5014101;28;20241;-84
2022/01/30 06:02:41;;;;;;;1.90;1.80;;;;;;;6.68;88.76;96299.28;5013482;28;20230;-84
2022/01/30 06:05:09;;;;;;;2.33;2.13;;;;;;;6.64;88.48;96290.25;5014148;28;20666;-84
2022/01/30 06:07:37;;;;;;;2.53;2.10;;;;;;;6.67;88.59;96294.31;5008752;28;20223;-84
2022/01/30 06:10:04;;;;;;;2.20;2.00;;;;;;;6.67;88.17;96296.84;5014050;28;20246;-84
2022/01/30 06:12:31;;;;;;;2.23;2.03;;;;;;;6.57;88.35;96301.97;5014513;28;20597;-84
2022/01/30 06:14:57;;;;;;;1.80;1.70;;;;;;;6.58;88.35;96304.38;5013791;28;20195;-84
2022/01/30 06:17:25;;;;;;;1.83;1.73;;;;;;;6.62;88.23;96304.94;5013580;28;20248;-84
2022/01/30 06:19:51;;;;;;;1.83;1.73;;;;;;;6.59;87.79;96300.88;5014379;28;20215;-84
2022/01/30 06:22:18;;;;;;;2.13;1.93;;;;;;;6.55;87.57;96309.75;5014290;28;20213;-84
2022/01/30 06:24:44;;;;;;;2.10;1.90;;;;;;;6.55;88.71;96309.75;5013328;28;20252;-83
2022/01/30 06:27:11;;;;;;;2.20;2.00;;;;;;;6.61;88.53;96315.28;5015598;28;20214;-84
2022/01/30 06:29:37;;;;;;;2.50;2.00;;;;;;;6.63;89.35;96315.97;5015020;28;20222;-84
2022/01/30 06:32:04;;;;;;;1.90;1.80;;;;;;;6.61;90.60;96325.53;5013435;28;20195;-84
2022/01/30 06:34:32;;;;;;;2.00;1.90;;;;;;;6.69;90.60;96335.91;5015091;28;20218;-83
2022/01/30 06:36:59;;;;;;;2.00;1.90;;;;;;;6.53;91.99;96332.16;5014991;28;20187;-83
2022/01/30 06:39:25;;;;;;;2.40;2.20;;;;;;;6.62;91.72;96327.97;5014403;28;20246;-84
2022/01/30 06:41:53;;;;;;;2.30;2.00;;;;;;;6.59;92.39;96331.59;5014933;28;20206;-83
2022/01/30 06:44:19;;;;;;;2.20;2.00;;;;;;;6.73;91.29;96337.28;5014406;28;20214;-84
2022/01/30 06:46:46;;;;;;;3.10;2.27;;;;;;;6.68;92.41;96335.13;5012716;28;20313;-84
2022/01/30 06:49:12;;;;;;;2.40;2.20;;;;;;;6.66;93.29;96342.09;5012516;28;20230;-84
2022/01/30 06:51:40;;;;;;;2.50;2.30;;;;;;;6.65;91.93;96343.06;5014339;28;20207;-84
2022/01/30 06:54:06;;;;;;;3.53;2.20;;;;;;;6.93;96.06;96351.66;5015095;28;20574;-83
2022/01/30 06:56:33;;;;;;;2.60;2.40;;;;;;;7.00;89.22;96360.44;5014737;28;20206;-84
2022/01/30 06:58:59;;;;;;;2.50;2.30;;;;;;;7.00;90.86;96364.75;5013450;28;20237;-84
2022/01/30 07:01:26;;;;;;;2.17;1.83;;;;;;;6.85;89.23;96375.38;5012772;28;20200;-84
2022/01/30 07:03:53;;;;;;;2.27;2.07;;;;;;;6.73;89.08;96371.34;5016621;28;20198;-84
2022/01/30 07:06:19;;;;;;;2.10;1.90;;;;;;;6.69;89.22;96359.75;5015694;28;20203;-84
2022/01/30 07:08:48;;;;;;;2.50;1.90;;;;;;;6.69;88.95;96369.19;5015452;28;20237;-83
2022/01/30 07:11:15;;;;;;;1.70;1.60;;;;;;;6.79;88.40;96367.44;5015823;28;20290;-83
2022/01/30 07:13:41;;;;;;;1.90;1.80;;;;;;;6.80;88.13;96362.19;5041431;23;21214;-84
2022/01/30 07:16:08;;;;;;;1.93;1.70;;;;;;;6.87;88.04;96359.91;5005978;28;20219;-83
2022/01/30 07:18:34;;;;;;;1.50;1.40;;;;;;;6.87;87.33;96365.03;5006237;28;20238;-83
2022/01/30 07:21:03;;;;;;;2.27;1.50;;;;;;;6.76;87.59;96360.81;5008018;28;20235;-85
2022/01/30 07:23:30;;;;;;;1.30;1.20;;;;;;;6.73;87.92;96368.78;5007912;28;20203;-83
2022/01/30 07:25:58;;;;;;;1.10;1.10;;;;;;;6.65;87.94;96372.94;5008995;28;20227;-83
2022/01/30 07:28:24;;;;;;;1.43;1.33;;;;;;;6.71;87.57;96363.00;5008718;28;20296;-81
2022/01/30 07:30:51;;;;;;;1.70;1.10;;;;;;;6.68;87.80;96380.38;5010911;28;20199;-81
2022/01/30 07:33:17;;;;;;;1.30;1.20;;;;;;;6.68;87.45;96372.69;5011721;28;20202;-83
2022/01/30 07:35:44;;;;;;;1.13;1.10;;;;;;;6.70;87.02;96381.03;5012102;28;20594;-84
2022/01/30 07:38:11;;;;;;;1.17;1.17;;;;;;;6.72;86.83;96372.28;5011507;28;20227;-83
2022/01/30 07:40:38;;;;;;;1.60;1.13;;;;;;;6.82;87.07;96390.19;5010387;28;20654;-83
2022/01/30 07:43:06;;;;;;;1.10;1.10;;;;;;;6.83;86.61;96386.69;5004816;28;20208;-84
2022/01/30 07:45:33;;;;;;;0.90;0.87;;;;;;;6.77;85.45;96395.72;5010621;28;20210;-83
2022/01/30 07:47:59;;;;;;;1.27;1.17;;;;;;;6.83;84.64;96392.63;5006654;28;20648;-84
2022/01/30 07:50:26;;;;;;;1.03;0.93;;;;;;;6.82;84.45;96400.44;5010948;28;20199;-84
2022/01/30 07:52:53;;;;;;;2.90;1.17;;;;;;;6.86;83.43;96389.81;5011450;28;20198;-83
2022/01/30 07:55:19;;;;;;;1.20;1.10;;;;;;;6.91;82.69;96377.44;5014170;28;20516;-84
2022/01/30 07:57:46;;;;;;;1.20;1.10;;;;;;;7.04;81.49;96379.72;5012662;28;20241;-82
2022/01/30 08:00:15;;;;;;;1.03;0.93;;;;;;;7.31;79.63;96398.72;5008177;28;20219;-82
2022/01/30 08:02:41;;;;;;;1.57;1.20;;;;;;;7.47;77.63;96374.16;5006276;28;20201;-84
2022/01/30 08:05:10;;;;;;;3.07;1.50;;;;;;;7.49;76.53;96377.38;5012735;28;20221;-81
2022/01/30 08:07:36;;;;;;;2.23;1.30;;;;;;;7.35;75.99;96393.16;5014368;28;20223;-81
2022/01/30 08:10:03;;;;;;;5.60;1.80;;;;;;;7.11;75.58;96378.25;5011215;28;20259;-82
2022/01/30 08:12:30;;;;;;;4.07;1.50;;;;;;;7.06;75.01;96388.06;5010634;28;20199;-80
2022/01/30 08:14:56;;;;;;;2.57;1.60;;;;;;;6.90;76.33;96392.91;5012267;28;20223;-84
2022/01/30 08:17:24;;;;;;;3.97;1.40;;;;;;;6.87;76.93;96411.91;5012957;28;20186;-84
2022/01/30 08:19:51;;;;;;;3.10;1.60;;;;;;;6.76;77.94;96399.22;5011526;28;20222;-83
2022/01/30 08:22:18;;;;;;;6.23;3.33;;;;;;;6.67;76.71;96412.00;5012546;28;20245;-83
2022/01/30 08:24:46;;;;;;;4.03;1.67;;;;;;;6.64;77.20;96418.19;5010680;28;22010;-84
2022/01/30 08:27:12;;;;;;;3.10;1.33;;;;;;;6.68;77.45;96428.97;5011397;28;20226;-84
2022/01/30 08:29:39;;;;;;;2.37;1.10;;;;;;;6.65;78.36;96424.13;5011549;28;20207;-83
2022/01/30 08:32:11;;;;;;;2.40;1.20;;;;;;;6.78;78.98;96430.59;5011633;28;20222;-81
2022/01/30 08:34:39;;;;;;;1.10;1.00;;;;;;;6.87;78.48;96424.72;5006365;28;20230;-84
2022/01/30 08:37:06;;;;;;;1.43;1.20;;;;;;;6.96;78.56;96435.06;5006107;28;20233;-84
2022/01/30 08:39:32;;;;;;;3.47;1.23;;;;;;;6.98;77.91;96433.19;5010340;28;20226;-83
2022/01/30 08:42:00;;;;;;;1.73;1.33;;;;;;;7.00;78.32;96436.44;5004913;28;20657;-85
2022/01/30 08:44:27;;;;;;;2.43;1.23;;;;;;;7.11;77.66;96438.88;5004772;28;20926;-84
2022/01/30 08:46:55;;;;;;;2.27;1.10;;;;;;;7.11;77.57;96441.44;5011580;28;20668;-83
2022/01/30 08:49:21;;;;;;;1.53;1.00;;;;;;;7.27;76.92;96442.53;5005544;28;20215;-84
2022/01/30 08:51:49;;;;;;;1.50;1.00;;;;;;;7.34;76.91;96444.53;5009929;28;20222;-84
2022/01/30 08:54:16;;;;;;;1.53;1.20;;;;;;;7.43;76.78;96448.84;5011026;28;20594;-84
2022/01/30 08:56:42;;;;;;;1.20;1.10;;;;;;;7.45;76.71;96444.41;5011508;28;20199;-84
2022/01/30 08:59:08;;;;;;;2.60;1.17;;;;;;;7.53;76.15;96453.00;5010489;28;20202;-83
2022/01/30 09:01:35;;;;;;;1.07;1.00;;;;;;;7.63;76.13;96451.25;5010048;28;20226;-84
2022/01/30 09:04:03;;;;;;;1.47;1.20;;;;;;;7.97;75.03;96461.03;5012492;28;20233;-84
2022/01/30 09:06:29;;;;;;;2.07;1.20;;;;;;;8.26;73.08;96455.84;5011592;28;20198;-83
2022/01/30 09:08:59;;;;;;;2.23;1.10;;;;;;;8.55;71.57;96436.03;5011302;28;20296;-85
2022/01/30 09:11:26;;;;;;;1.87;1.63;;;;;;;8.69;70.36;96437.28;5011272;28;20226;-85
2022/01/30 09:13:52;;;;;;;6.90;4.60;;;;;;;9.01;68.58;96449.69;5010730;28;20195;-85
2022/01/30 09:16:19;;;;;;;1.40;1.30;;;;;;;9.16;67.26;96453.38;5009440;28;20210;-85
2022/01/30 09:18:56;;;;;;;1.57;1.10;;;;;;;9.37;65.37;96458.22;5009194;28;20187;-85
2022/01/30 09:21:51;;;;;;;2.47;1.37;;;;;;;9.35;63.28;96460.94;4998912;28;20230;-85
2022/01/30 09:24:19;;;;;;;2.03;1.30;;;;;;;8.86;61.50;96462.19;5007473;28;20215;-85
2022/01/30 09:26:45;;;;;;;5.33;1.93;;;;;;;8.62;62.43;96475.59;5011371;28;20210;-86
2022/01/30 09:29:11;;;;;;;4.77;1.63;;;;;;;8.61;60.29;96473.16;5009822;28;20222;-85
2022/01/30 09:31:38;;;;;;;2.47;1.37;;;;;;;8.54;60.45;96482.38;5010403;28;20221;-85
2022/01/30 09:34:04;;;;;;;4.27;1.67;;;;;;;8.21;59.53;96489.59;5010085;28;20230;-85
2022/01/30 09:36:31;;;;;;;4.00;1.70;;;;;;;8.14;60.45;96485.16;5010410;28;20675;-87
2022/01/30 09:38:57;;;;;;;6.17;1.97;;;;;;;8.04;60.36;96489.53;5012272;28;20202;-85
2022/01/30 09:41:26;;;;;;;4.53;1.60;;;;;;;7.95;60.71;96489.38;5009406;28;20198;-85
2022/01/30 09:43:53;;;;;;;7.73;4.00;;;;;;;7.89;61.05;96484.00;5009204;28;20227;-86
2022/01/30 09:46:20;;;;;;;8.53;5.30;;;;;;;8.24;61.81;96491.09;5011934;28;20202;-85
2022/01/30 09:48:50;;;;;;;3.60;1.70;;;;;;;8.73;61.53;96481.47;5003522;28;20218;-86
2022/01/30 09:51:16;;;;;;;2.67;1.60;;;;;;;8.72;60.38;96470.38;5011641;28;20201;-85
2022/01/30 09:53:43;;;;;;;3.73;1.70;;;;;;;8.44;60.83;96481.59;5009930;28;20230;-85
2022/01/30 09:56:10;;;;;;;4.93;2.00;;;;;;;8.22;60.87;96465.56;5010779;28;20194;-84
2022/01/30 09:58:37;;;;;;;4.10;1.77;;;;;;;8.04;59.50;96476.69;5011021;28;20201;-85
2022/01/30 10:01:04;;;;;;;5.50;2.07;;;;;;;8.25;59.78;96469.63;5009191;28;20202;-84
2022/01/30 10:03:30;;;;;;;4.30;1.83;;;;;;;8.20;59.06;96474.34;5009095;28;20231;-86
2022/01/30 10:06:04;;;;;;;5.20;2.20;;;;;;;8.36;58.41;96472.03;5011088;28;20230;-86
2022/01/30 10:08:31;;;;;;;5.10;2.00;;;;;;;8.18;58.57;96473.69;5011072;28;20229;-86
2022/01/30 10:11:00;;;;;;;4.43;1.90;;;;;;;8.12;58.92;96463.97;5011388;28;20195;-86
2022/01/30 10:13:31;;;;;;;5.03;2.07;;;;;;;8.20;58.83;96454.66;5010354;28;20234;-86
2022/01/30 10:16:04;;;;;;;3.87;1.80;;;;;;;8.24;58.37;96453.41;5010083;28;20249;-84
2022/01/30 10:18:32;;;;;;;4.33;2.30;;;;;;;8.43;59.14;96442.31;5006807;28;20201;-81
2022/01/30 10:20:59;;;;;;;6.53;2.17;;;;;;;8.65;58.32;96434.22;5009388;28;20201;-84
2022/01/30 10:23:33;;;;;;;5.57;1.70;;;;;;;8.88;57.99;96415.81;5009398;28;20658;-86
2022/01/30 10:26:01;;;;;;;5.83;2.10;;;;;;;8.97;58.34;96441.47;5009799;28;20234;-86
2022/01/30 10:28:30;;;;;;;7.13;2.83;;;;;;;9.12;57.85;96418.63;5010088;28;20247;-82
2022/01/30 10:31:01;;;;;;;7.10;2.10;;;;;;;9.49;57.46;96415.09;5011612;28;20214;-86
2022/01/30 10:33:40;;;;;;;6.17;2.47;;;;;;;9.57;57.33;96426.25;5011299;28;20199;-86
2022/01/30 10:36:08;;;;;;;5.47;2.43;;;;;;;9.65;56.81;96423.72;5010711;28;20226;-86
2022/01/30 10:38:39;;;;;;;5.53;2.10;;;;;;;9.67;57.11;96429.53;5009444;28;20386;-85
2022/01/30 10:41:12;;;;;;;6.53;2.30;;;;;;;9.66;56.63;96434.81;5011683;28;20230;-85
2022/01/30 10:43:54;;;;;;;5.47;2.20;;;;;;;9.68;56.44;96438.84;5012097;28;20202;-86
2022/01/30 10:46:24;;;;;;;3.13;1.90;;;;;;;9.78;56.89;96440.53;5008268;28;20223;-85
2022/01/30 10:48:52;;;;;;;4.97;2.00;;;;;;;9.91;56.78;96440.94;5011609;28;20210;-86
2022/01/30 10:51:19;;;;;;;5.20;2.27;;;;;;;10.06;56.62;96436.84;5010577;28;20198;-85
2022/01/30 10:53:46;;;;;;;5.63;2.20;;;;;;;10.25;55.94;96436.66;5010752;28;20206;-86
2022/01/30 10:56:19;;;;;;;2.93;1.90;;;;;;;10.28;55.81;96436.34;5010847;28;20222;-86
2022/01/30 10:59:04;;;;;;;4.23;1.90;;;;;;;10.47;55.73;96450.75;5009213;28;20195;-86
2022/01/30 11:01:32;;;;;;;5.30;2.10;;;;;;;10.11;56.18;96451.84;5013340;28;20195;-84
2022/01/30 11:04:00;;;;;;;4.73;2.23;;;;;;;10.21;56.46;96443.06;5015209;28;20191;-85
2022/01/30 11:06:29;;;;;;;3.37;1.60;;;;;;;10.45;55.54;96431.28;5012926;28;20595;-84
2022/01/30 11:09:05;;;;;;;4.03;1.93;;;;;;;10.53;56.04;96439.06;5007797;28;20690;-84
2022/01/30 11:11:36;;;;;;;4.67;1.90;;;;;;;10.45;55.59;96428.72;5013290;28;20662;-82
2022/01/30 11:14:20;;;;;;;5.83;2.20;;;;;;;10.34;55.71;96429.81;5013213;28;20237;-84
2022/01/30 11:16:56;;;;;;;3.87;2.00;;;;;;;10.31;55.56;96438.63;5008102;28;20207;-84
2022/01/30 11:19:24;;;;;;;3.77;1.67;;;;;;;10.21;55.95;96437.13;5010699;28;20219;-87
2022/01/30 11:21:52;;;;;;;5.27;1.80;;;;;;;10.29;55.94;96437.16;5014253;28;20199;-87
2022/01/30 11:24:20;;;;;;;4.00;2.00;;;;;;;10.51;55.73;96431.47;5013946;28;20215;-87
2022/01/30 11:26:47;;;;;;;5.33;2.03;;;;;;;10.54;54.91;96430.38;5011443;28;20190;-83
2022/01/30 11:29:16;;;;;;;4.70;2.07;;;;;;;10.60;55.43;96434.88;5008733;28;20218;-87
2022/01/30 11:31:43;;;;;;;3.80;1.87;;;;;;;10.75;55.38;96432.53;5010839;28;20214;-86
2022/01/30 11:34:11;;;;;;;4.47;1.80;;;;;;;10.78;55.04;96432.19;5013374;28;20310;-86
2022/01/30 11:36:43;;;;;;;4.77;2.00;;;;;;;10.87;55.04;96426.13;5013048;28;20203;-87
2022/01/30 11:39:15;;;;;;;6.33;2.23;;;;;;;11.04;54.45;96427.75;5012949;28;20218;-86
2022/01/30 11:41:41;;;;;;;4.20;1.90;;;;;;;11.07;52.93;96425.69;5013706;28;20566;-87
2022/01/30 11:44:27;;;;;;;3.90;1.80;;;;;;;11.00;51.80;96421.31;5014445;28;20226;-85
2022/01/30 11:47:20;;;;;;;5.37;2.00;;;;;;;10.95;51.28;96414.06;5014256;28;20202;-86
2022/01/30 11:49:52;;;;;;;3.57;1.90;;;;;;;10.81;50.14;96406.13;5006334;28;20265;-86
2022/01/30 11:52:20;;;;;;;3.37;1.67;;;;;;;10.90;49.20;96406.00;5013974;28;20691;-86
2022/01/30 11:54:49;;;;;;;4.27;1.70;;;;;;;10.97;48.71;96406.97;5013618;28;20210;-86
2022/01/30 11:57:52;;;;;;;3.13;1.63;;;;;;;10.82;47.90;96403.41;5014179;28;20213;-87
2022/01/30 12:00:36;;;;;;;2.97;1.50;;;;;;;10.82;46.32;96398.25;5011362;28;20233;-87
2022/01/30 12:03:23;;;;;;;3.10;1.73;;;;;;;10.78;45.67;96394.38;5014558;28;20218;-87
2022/01/30 12:05:52;;;;;;;5.77;1.87;;;;;;;10.78;45.13;96388.41;5014092;28;20215;-87
2022/01/30 12:08:42;;;;;;;2.93;1.57;;;;;;;10.87;45.80;96396.00;5013704;28;20601;-87
2022/01/30 12:11:43;;;;;;;4.50;1.80;;;;;;;10.94;47.07;96403.91;5012597;28;20191;-86
2022/01/30 12:14:31;;;;;;;4.70;1.97;;;;;;;10.96;47.78;96410.53;5009274;28;20222;-85
2022/01/30 12:17:00;;;;;;;4.80;1.80;;;;;;;10.86;47.68;96411.63;5013823;28;20199;-87
2022/01/30 12:20:02;;;;;;;5.03;2.07;;;;;;;10.72;47.33;96407.88;5012553;28;20237;-85
2022/01/30 12:22:41;;;;;;;4.50;2.30;;;;;;;10.87;47.37;96406.31;5011451;28;20214;-87
2022/01/30 12:25:31;;;;;;;2.57;1.60;;;;;;;10.87;46.67;96408.88;5005327;28;20230;-87
2022/01/30 12:28:01;;;;;;;4.20;1.80;;;;;;;10.94;46.49;96411.66;5010703;28;20199;-87